Comstock Park, Michigan
Current Conditions -  °F | °C
As of 10:53 AM on Thursday 23 Oct 2014 (Local Time) from KGRR Reporting Station
Haze Haze  
Wind Chill: 39°   Ceiling: 23000
Heat Index: 43°   Visibility: 5mi
Dew Point: 41°   Wind: 6mph
Humidity: 93%   Direction: NA
Pressure: 30.25"   Gusts: NA
Location:  43.03°N, 85.67°W
Report Text: KGRR 231453Z VRB05KT 5SM BR FEW004 BKN230 06/05 A3025 RMK AO2 SLP249 I3000 T00610050 56002
Loading
Personal Weather Stations






























Interactive Weather Map
Tropical Storm Tracking
New forecast layout! Learn more

10-Day Weather Forecast

Advertisements
Track Severe Weather on mobile